createdAt,value
2022-11-07T00:02:17.673Z,71.28
2022-11-07T00:04:44.372Z,71.58
2022-11-07T00:07:11.106Z,71.48
2022-11-07T00:09:37.765Z,71.51
2022-11-07T00:12:04.392Z,71.36
2022-11-07T00:14:33.240Z,71.44
2022-11-07T00:16:59.818Z,71.30
2022-11-07T00:19:26.337Z,71.23
2022-11-07T00:21:52.809Z,71.15
2022-11-07T00:24:21.878Z,71.18
2022-11-07T00:26:48.494Z,71.20
2022-11-07T00:29:18.123Z,71.35
2022-11-07T00:31:44.945Z,71.39
2022-11-07T00:34:11.914Z,71.42
2022-11-07T00:36:38.652Z,71.61
2022-11-07T00:39:05.576Z,71.60
2022-11-07T00:41:32.636Z,71.60
2022-11-07T00:44:01.458Z,71.55
2022-11-07T00:46:28.005Z,71.54
2022-11-07T00:48:54.891Z,71.51
2022-11-07T00:51:22.846Z,70.84
2022-11-07T00:53:51.920Z,71.06
2022-11-07T00:56:26.214Z,71.16
2022-11-07T00:59:01.930Z,71.25
2022-11-07T01:01:32.422Z,71.06
2022-11-07T01:04:18.147Z,70.70
2022-11-07T01:06:45.326Z,71.20
2022-11-07T01:09:12.741Z,70.95
2022-11-07T01:11:41.731Z,71.41
2022-11-07T01:14:08.447Z,71.23
2022-11-07T01:16:35.536Z,71.30
2022-11-07T01:19:05.199Z,71.11
2022-11-07T01:21:31.763Z,71.08
2022-11-07T01:23:58.417Z,71.11
2022-11-07T01:26:24.953Z,70.76
2022-11-07T01:28:51.504Z,70.63
2022-11-07T01:31:18.221Z,70.38
2022-11-07T01:33:44.857Z,70.53
2022-11-07T01:36:12.620Z,71.18
2022-11-07T01:38:42.001Z,71.61
2022-11-07T01:41:22.194Z,71.63
2022-11-07T01:43:48.685Z,71.76
2022-11-07T01:46:15.232Z,71.75
2022-11-07T01:48:44.865Z,71.04
2022-11-07T01:51:11.526Z,71.29
2022-11-07T01:53:40.424Z,71.50
2022-11-07T01:56:08.137Z,71.39
2022-11-07T01:58:35.032Z,71.17
2022-11-07T02:01:02.485Z,71.14
2022-11-07T02:03:29.037Z,71.08
2022-11-07T02:05:57.656Z,70.94
2022-11-07T02:08:27.359Z,70.64
2022-11-07T02:10:53.963Z,70.94
2022-11-07T02:13:23.859Z,70.98
2022-11-07T02:15:52.608Z,71.11
2022-11-07T02:18:19.134Z,70.53
2022-11-07T02:20:46.492Z,70.71
2022-11-07T02:23:18.377Z,70.77
2022-11-07T02:25:47.369Z,70.85
2022-11-07T02:28:13.865Z,70.66
2022-11-07T02:30:40.468Z,70.74
2022-11-07T02:33:16.974Z,70.69
2022-11-07T02:35:44.878Z,70.64
2022-11-07T02:38:17.701Z,70.60
2022-11-07T02:40:47.892Z,70.56
2022-11-07T02:43:14.860Z,70.62
2022-11-07T02:45:42.415Z,70.78
2022-11-07T02:48:08.909Z,70.50
2022-11-07T02:50:35.441Z,70.47
2022-11-07T02:53:04.306Z,70.40
2022-11-07T02:55:30.809Z,70.33
2022-11-07T02:58:02.213Z,70.36
2022-11-07T03:00:28.730Z,70.57
2022-11-07T03:02:55.379Z,70.83
2022-11-07T03:05:22.445Z,70.65
2022-11-07T03:07:49.212Z,70.71
2022-11-07T03:10:17.156Z,70.69
2022-11-07T03:12:46.039Z,70.77
2022-11-07T03:15:13.202Z,70.45
2022-11-07T03:17:40.055Z,70.62
2022-11-07T03:20:10.434Z,70.65
2022-11-07T03:22:37.028Z,70.61
2022-11-07T03:25:03.817Z,70.57
2022-11-07T03:27:30.372Z,70.76
2022-11-07T03:29:58.917Z,70.74
2022-11-07T03:32:25.492Z,70.85
2022-11-07T03:34:52.051Z,70.74
2022-11-07T03:37:20.938Z,70.83
2022-11-07T03:39:47.503Z,70.74
2022-11-07T03:42:14.107Z,70.76
2022-11-07T03:44:47.437Z,70.63
2022-11-07T03:47:16.325Z,70.77
2022-11-07T03:49:42.857Z,70.75
2022-11-07T03:52:11.958Z,70.69
2022-11-07T03:54:38.548Z,70.31
2022-11-07T03:57:05.426Z,70.73
2022-11-07T03:59:34.375Z,71.07
2022-11-07T04:02:01.083Z,71.26
2022-11-07T04:04:30.345Z,71.42
2022-11-07T04:06:56.909Z,71.36
2022-11-07T04:09:23.444Z,72.29
2022-11-07T04:12:11.737Z,72.45
2022-11-07T04:14:59.211Z,72.72
2022-11-07T04:17:28.286Z,72.56
2022-11-07T04:19:56.000Z,72.91
2022-11-07T04:22:25.975Z,73.14
2022-11-07T04:24:54.777Z,73.35
2022-11-07T04:27:40.165Z,73.43
2022-11-07T04:30:20.228Z,73.41
2022-11-07T04:32:47.268Z,73.04
2022-11-07T04:35:13.904Z,72.75
2022-11-07T04:37:40.913Z,72.56
2022-11-07T04:40:08.051Z,72.26
2022-11-07T04:42:36.896Z,72.19
2022-11-07T04:45:04.153Z,71.92
2022-11-07T04:47:31.090Z,71.59
2022-11-07T04:50:00.027Z,71.67
2022-11-07T04:52:28.872Z,71.55
2022-11-07T04:54:56.132Z,71.35
2022-11-07T04:57:25.134Z,71.22
2022-11-07T04:59:52.238Z,71.08
2022-11-07T05:02:18.924Z,70.90
2022-11-07T05:04:45.772Z,71.08
2022-11-07T05:07:14.786Z,71.13
2022-11-07T05:09:43.417Z,71.29
2022-11-07T05:12:10.649Z,71.45
2022-11-07T05:14:39.723Z,71.36
2022-11-07T05:17:06.555Z,71.34
2022-11-07T05:19:33.143Z,71.69
2022-11-07T05:22:20.005Z,72.26
2022-11-07T05:24:49.458Z,72.09
2022-11-07T05:27:19.960Z,72.91
2022-11-07T05:29:47.111Z,73.41
2022-11-07T05:32:14.044Z,73.37
2022-11-07T05:34:45.900Z,73.43
2022-11-07T05:37:15.097Z,73.79
2022-11-07T05:39:41.739Z,73.69
2022-11-07T05:42:10.931Z,73.52
2022-11-07T05:44:39.825Z,73.23
2022-11-07T05:47:08.848Z,72.88
2022-11-07T05:49:35.873Z,72.70
2022-11-07T05:52:02.509Z,72.60
2022-11-07T05:54:30.373Z,72.25
2022-11-07T05:56:58.029Z,71.93
2022-11-07T05:59:24.821Z,71.89
2022-11-07T06:01:54.554Z,71.64
2022-11-07T06:04:21.411Z,71.79
2022-11-07T06:06:48.485Z,71.50
2022-11-07T06:09:15.595Z,71.60
2022-11-07T06:11:42.289Z,71.66
2022-11-07T06:14:09.042Z,71.55
2022-11-07T06:16:38.638Z,71.54
2022-11-07T06:19:11.507Z,71.46
2022-11-07T06:21:41.706Z,71.44
2022-11-07T06:24:17.381Z,71.19
2022-11-07T06:26:46.679Z,71.64
2022-11-07T06:29:21.833Z,71.54
2022-11-07T06:31:50.331Z,71.55
2022-11-07T06:34:20.882Z,71.50
2022-11-07T06:36:54.098Z,71.48
2022-11-07T06:39:26.651Z,71.53
2022-11-07T06:41:55.732Z,71.21
2022-11-07T06:44:22.232Z,71.15
2022-11-07T06:46:48.751Z,70.79
2022-11-07T06:49:17.730Z,70.23
2022-11-07T06:51:47.892Z,69.64
2022-11-07T06:54:17.392Z,70.12
2022-11-07T06:56:46.334Z,71.22
2022-11-07T06:59:12.960Z,70.99
2022-11-07T07:01:39.643Z,70.31
2022-11-07T07:04:06.235Z,70.47
2022-11-07T07:06:37.997Z,70.50
2022-11-07T07:09:06.818Z,70.24
2022-11-07T07:11:35.541Z,69.90
2022-11-07T07:14:08.679Z,69.57
2022-11-07T07:16:38.307Z,69.54
2022-11-07T07:19:05.004Z,69.18
2022-11-07T07:21:31.517Z,69.10
2022-11-07T07:23:58.036Z,69.17
2022-11-07T07:26:24.540Z,68.73
2022-11-07T07:28:51.120Z,69.01
2022-11-07T07:31:19.550Z,68.85
2022-11-07T07:33:46.850Z,68.84
2022-11-07T07:36:19.291Z,68.90
2022-11-07T07:38:49.754Z,68.67
2022-11-07T07:41:16.491Z,68.41
2022-11-07T07:43:45.344Z,67.90
2022-11-07T07:46:16.832Z,67.48
2022-11-07T07:48:43.465Z,67.29
2022-11-07T07:51:10.006Z,66.83
2022-11-07T07:53:36.537Z,66.28
2022-11-07T07:56:05.601Z,66.45
2022-11-07T07:58:32.155Z,66.26
2022-11-07T08:01:01.106Z,65.30
2022-11-07T08:03:31.949Z,65.00
2022-11-07T08:05:58.902Z,64.28
2022-11-07T08:08:27.881Z,63.71
2022-11-07T08:11:00.018Z,63.72
2022-11-07T08:13:31.947Z,64.41
2022-11-07T08:15:58.612Z,65.23
2022-11-07T08:18:27.458Z,65.70
2022-11-07T08:20:54.448Z,66.14
2022-11-07T08:23:21.520Z,66.24
2022-11-07T08:26:06.766Z,67.05
2022-11-07T08:28:36.139Z,67.37
2022-11-07T08:31:03.127Z,67.87
2022-11-07T08:33:29.753Z,68.47
2022-11-07T08:35:56.929Z,67.99
2022-11-07T08:38:23.700Z,67.75
2022-11-07T08:40:50.654Z,67.67
2022-11-07T08:43:19.979Z,66.97
2022-11-07T08:45:47.669Z,66.56
2022-11-07T08:48:14.761Z,66.27
2022-11-07T08:50:43.715Z,65.54
2022-11-07T08:53:10.316Z,65.88
2022-11-07T08:55:36.932Z,65.93
2022-11-07T08:58:07.215Z,65.78
2022-11-07T09:00:34.595Z,65.34
2022-11-07T09:05:48.890Z,65.50
2022-11-07T09:08:15.418Z,65.94
2022-11-07T09:10:42.073Z,66.55
2022-11-07T09:13:08.632Z,65.60
2022-11-07T09:15:35.285Z,64.02
2022-11-07T09:18:02.987Z,64.91
2022-11-07T09:20:32.025Z,64.70
2022-11-07T09:23:00.983Z,64.75
2022-11-07T09:25:27.592Z,65.02
2022-11-07T09:27:54.561Z,65.49
2022-11-07T09:30:23.507Z,65.26
2022-11-07T09:32:55.469Z,64.78
2022-11-07T09:35:22.116Z,63.92
2022-11-07T09:37:49.955Z,62.17
2022-11-07T09:40:19.593Z,63.14
2022-11-07T09:42:54.294Z,62.72
2022-11-07T09:45:20.810Z,62.70
2022-11-07T09:47:48.433Z,62.13
2022-11-07T09:50:36.800Z,60.93
2022-11-07T09:53:33.155Z,61.02
2022-11-07T09:56:00.688Z,61.41
2022-11-07T09:58:30.302Z,61.86
2022-11-07T10:00:59.777Z,61.22
2022-11-07T10:03:26.512Z,60.13
2022-11-07T10:05:56.260Z,59.22
2022-11-07T10:08:22.735Z,59.07
2022-11-07T10:10:49.378Z,59.62
2022-11-07T10:13:16.192Z,57.76
2022-11-07T10:15:47.921Z,57.22
2022-11-07T10:18:33.219Z,57.63
2022-11-07T10:21:31.255Z,57.07
2022-11-07T10:23:49.228Z,56.25
2022-11-07T10:26:17.484Z,54.19
2022-11-07T10:28:45.317Z,54.48
2022-11-07T10:31:12.719Z,55.85
2022-11-07T10:33:41.195Z,56.11
2022-11-07T10:36:20.299Z,57.36
2022-11-07T10:38:46.965Z,58.67
2022-11-07T10:41:24.191Z,59.74
2022-11-07T10:44:14.314Z,60.83
2022-11-07T10:46:43.242Z,60.68
2022-11-07T10:49:20.076Z,61.55
2022-11-07T10:51:49.175Z,59.65
2022-11-07T10:54:22.499Z,59.99
2022-11-07T10:56:54.359Z,60.17
2022-11-07T10:59:23.450Z,61.55
2022-11-07T11:01:50.785Z,60.00
2022-11-07T11:04:23.765Z,60.42
2022-11-07T11:07:00.267Z,61.17
2022-11-07T11:09:34.092Z,61.64
2022-11-07T11:12:07.233Z,61.93
2022-11-07T11:14:36.276Z,61.80
2022-11-07T11:17:04.915Z,62.34
2022-11-07T11:19:43.226Z,61.81
2022-11-07T11:22:11.943Z,61.45
2022-11-07T11:24:38.668Z,61.47
2022-11-07T11:27:15.922Z,62.11
2022-11-07T11:29:48.729Z,61.76
2022-11-07T11:32:30.619Z,61.31
2022-11-07T11:34:57.191Z,62.22
2022-11-07T11:37:24.118Z,61.50
2022-11-07T11:40:02.501Z,62.18
2022-11-07T11:42:50.467Z,62.97
2022-11-07T11:45:17.169Z,63.96
2022-11-07T11:47:48.400Z,64.85
2022-11-07T11:50:18.681Z,64.51
2022-11-07T11:52:45.375Z,64.97
2022-11-07T11:55:16.194Z,65.73
2022-11-07T11:57:55.054Z,65.55
2022-11-07T12:00:24.635Z,66.38
2022-11-07T12:03:00.395Z,66.59
2022-11-07T12:05:29.681Z,66.27
2022-11-07T12:08:12.522Z,66.87
2022-11-07T12:10:44.257Z,67.26
2022-11-07T12:13:17.121Z,66.67
2022-11-07T12:15:52.630Z,66.52
2022-11-07T12:18:27.784Z,66.58
2022-11-07T12:21:02.783Z,66.15
2022-11-07T12:23:47.760Z,65.63
2022-11-07T12:26:20.343Z,66.01
2022-11-07T12:28:49.235Z,65.92
2022-11-07T12:31:26.902Z,65.66
2022-11-07T12:33:56.431Z,63.77
2022-11-07T12:36:37.666Z,62.08
2022-11-07T12:39:07.445Z,60.84
2022-11-07T12:41:49.585Z,60.61
2022-11-07T12:44:19.178Z,60.53
2022-11-07T12:46:53.162Z,60.09
2022-11-07T12:49:38.590Z,60.22
2022-11-07T12:52:11.759Z,58.96
2022-11-07T12:54:38.300Z,58.77
2022-11-07T12:57:27.494Z,57.40
2022-11-07T13:00:13.025Z,55.97
2022-11-07T13:02:51.181Z,56.35
2022-11-07T13:05:20.775Z,57.57
2022-11-07T13:07:55.982Z,58.39
2022-11-07T13:10:44.362Z,57.23
2022-11-07T13:13:12.502Z,56.02
2022-11-07T13:16:09.043Z,57.26
2022-11-07T13:18:26.510Z,55.86
2022-11-07T13:21:00.009Z,55.65
2022-11-07T13:23:28.979Z,57.02
2022-11-07T13:25:59.457Z,56.46
2022-11-07T13:28:39.479Z,57.95
2022-11-07T13:31:26.031Z,57.98
2022-11-07T13:33:59.470Z,57.34
2022-11-07T13:36:33.079Z,57.92
2022-11-07T13:39:02.010Z,58.32
2022-11-07T13:41:28.530Z,57.97
2022-11-07T13:43:59.561Z,57.93
2022-11-07T13:46:35.970Z,57.31
2022-11-07T13:49:14.747Z,57.54
2022-11-07T13:51:45.619Z,57.01
2022-11-07T13:54:12.503Z,57.97
2022-11-07T13:56:44.113Z,56.58
2022-11-07T13:59:12.581Z,56.07
2022-11-07T14:01:45.286Z,52.72
2022-11-07T14:04:13.152Z,51.43
2022-11-07T14:06:40.177Z,47.14
2022-11-07T14:09:09.227Z,47.34
2022-11-07T14:11:35.834Z,46.79
2022-11-07T14:14:02.449Z,45.90
2022-11-07T14:16:31.868Z,43.30
2022-11-07T14:18:59.410Z,44.60
2022-11-07T14:21:30.255Z,43.64
2022-11-07T14:23:59.356Z,45.83
2022-11-07T14:26:32.981Z,48.06
2022-11-07T14:29:04.962Z,49.16
2022-11-07T14:31:33.002Z,50.27
2022-11-07T14:34:01.154Z,50.96
2022-11-07T14:36:28.185Z,51.66
2022-11-07T14:39:05.166Z,52.94
2022-11-07T14:41:31.783Z,53.19
2022-11-07T14:44:00.119Z,53.93
2022-11-07T14:46:26.849Z,54.56
2022-11-07T14:48:53.486Z,54.74
2022-11-07T14:51:29.097Z,55.14
2022-11-07T14:54:01.541Z,55.60
2022-11-07T14:56:43.688Z,55.84
2022-11-07T14:59:16.684Z,56.18
2022-11-07T15:01:53.501Z,56.29
2022-11-07T15:04:26.319Z,56.76
2022-11-07T15:06:52.880Z,56.58
2022-11-07T15:09:33.108Z,57.26
2022-11-07T15:12:00.214Z,57.45
2022-11-07T15:14:34.891Z,57.35
2022-11-07T15:17:04.246Z,58.37
2022-11-07T15:19:31.708Z,58.63
2022-11-07T15:22:01.418Z,58.68
2022-11-07T15:24:38.661Z,58.95
2022-11-07T15:27:17.362Z,58.98
2022-11-07T15:29:53.718Z,59.43
2022-11-07T15:32:23.844Z,59.59
2022-11-07T15:35:07.905Z,60.30
2022-11-07T15:37:37.595Z,60.75
2022-11-07T15:40:12.501Z,61.03
2022-11-07T15:42:39.084Z,61.58
2022-11-07T15:45:08.435Z,61.74
2022-11-07T15:47:34.999Z,62.33
2022-11-07T15:50:01.720Z,62.86
2022-11-07T15:52:33.162Z,63.32
2022-11-07T15:54:59.723Z,63.53
2022-11-07T15:57:26.314Z,63.80
2022-11-07T15:59:52.911Z,63.61
2022-11-07T16:02:19.738Z,63.67
2022-11-07T16:04:54.184Z,63.51
2022-11-07T16:07:20.801Z,63.54
2022-11-07T16:09:48.817Z,63.76
2022-11-07T16:12:21.669Z,63.66
2022-11-07T16:14:48.319Z,63.97
2022-11-07T16:17:15.576Z,64.09
2022-11-07T16:19:42.192Z,63.83
2022-11-07T16:22:12.269Z,63.70
2022-11-07T16:24:38.847Z,63.72
2022-11-07T16:27:09.818Z,63.71
2022-11-07T16:29:39.348Z,64.05
2022-11-07T16:32:05.887Z,64.26
2022-11-07T16:34:35.047Z,64.55
2022-11-07T16:37:01.609Z,64.51
2022-11-07T16:39:28.298Z,64.54
2022-11-07T16:41:59.843Z,64.45
2022-11-07T16:44:26.726Z,64.34
2022-11-07T16:46:54.312Z,63.97
2022-11-07T16:49:26.111Z,64.18
2022-11-07T16:51:53.053Z,64.17
2022-11-07T16:54:22.129Z,64.10
2022-11-07T16:56:51.843Z,64.03
2022-11-07T16:59:22.828Z,63.65
2022-11-07T17:01:50.152Z,63.81
2022-11-07T17:04:16.842Z,64.28
2022-11-07T17:06:48.876Z,64.22
2022-11-07T17:09:24.863Z,64.29
2022-11-07T17:11:51.442Z,64.33
2022-11-07T17:14:18.163Z,64.59
2022-11-07T17:16:45.371Z,64.35
2022-11-07T17:19:12.111Z,64.48
2022-11-07T17:21:43.789Z,64.87
2022-11-07T17:24:13.616Z,65.14
2022-11-07T17:26:40.197Z,65.73
2022-11-07T17:29:07.269Z,66.58
2022-11-07T17:31:33.935Z,66.63
2022-11-07T17:34:00.480Z,66.36
2022-11-07T17:36:36.767Z,66.64
2022-11-07T17:39:05.817Z,66.90
2022-11-07T17:41:32.355Z,66.90
2022-11-07T17:44:01.464Z,66.84
2022-11-07T17:46:30.101Z,66.86
2022-11-07T17:49:00.829Z,67.09
2022-11-07T17:51:27.683Z,66.98
2022-11-07T17:53:54.674Z,66.64
2022-11-07T17:56:22.386Z,66.85
2022-11-07T17:58:49.236Z,67.11
2022-11-07T18:01:23.193Z,66.91
2022-11-07T18:03:50.344Z,66.89
2022-11-07T18:06:23.072Z,66.91
2022-11-07T18:08:53.489Z,66.84
2022-11-07T18:11:30.637Z,67.25
2022-11-07T18:13:57.732Z,67.11
2022-11-07T18:16:25.847Z,67.34
2022-11-07T18:18:54.570Z,67.26
2022-11-07T18:21:21.139Z,67.36
2022-11-07T18:23:48.088Z,67.45
2022-11-07T18:26:25.777Z,67.37
2022-11-07T18:28:55.460Z,67.42
2022-11-07T18:31:22.655Z,67.39
2022-11-07T18:33:52.824Z,67.40
2022-11-07T18:36:19.773Z,67.51
2022-11-07T18:38:47.297Z,67.51
2022-11-07T18:41:15.379Z,67.63
2022-11-07T18:43:42.066Z,67.61
2022-11-07T18:46:10.102Z,67.63
2022-11-07T18:48:38.934Z,67.50
2022-11-07T18:51:09.756Z,67.57
2022-11-07T18:53:40.005Z,67.35
2022-11-07T18:56:07.323Z,67.34
2022-11-07T18:58:36.518Z,67.55
2022-11-07T19:01:07.553Z,67.77
2022-11-07T19:03:34.437Z,67.84
2022-11-07T19:06:04.505Z,67.90
2022-11-07T19:08:32.051Z,67.97
2022-11-07T19:10:59.365Z,68.10
2022-11-07T19:13:28.872Z,68.07
2022-11-07T19:16:01.006Z,68.53
2022-11-07T19:18:32.376Z,69.28
2022-11-07T19:20:59.490Z,69.50
2022-11-07T19:23:26.192Z,70.30
2022-11-07T19:25:53.191Z,70.29
2022-11-07T19:28:19.754Z,71.30
2022-11-07T19:30:46.383Z,71.86
2022-11-07T19:33:16.432Z,71.95
2022-11-07T19:35:43.415Z,71.97
2022-11-07T19:38:10.082Z,71.37
2022-11-07T19:40:39.374Z,70.85
2022-11-07T19:43:06.309Z,70.89
2022-11-07T19:45:33.047Z,70.77
2022-11-07T19:47:59.679Z,70.99
2022-11-07T19:50:26.451Z,70.59
2022-11-07T19:52:53.089Z,70.12
2022-11-07T19:55:22.589Z,69.77
2022-11-07T19:57:51.532Z,69.71
2022-11-07T20:00:18.934Z,69.75
2022-11-07T20:02:51.809Z,69.67
2022-11-07T20:05:24.269Z,69.54
2022-11-07T20:07:57.102Z,69.52
2022-11-07T20:10:29.687Z,69.75
2022-11-07T20:12:56.448Z,69.91
2022-11-07T20:15:23.016Z,70.46
2022-11-07T20:17:49.753Z,70.54
2022-11-07T20:20:16.295Z,70.42
2022-11-07T20:22:48.750Z,70.33
2022-11-07T20:25:15.362Z,70.20
2022-11-07T20:27:41.961Z,70.13
2022-11-07T20:30:11.280Z,70.13
2022-11-07T20:32:39.272Z,70.14
2022-11-07T20:35:06.637Z,70.00
2022-11-07T20:37:33.223Z,70.04
2022-11-07T20:40:02.219Z,70.00
2022-11-07T20:42:31.308Z,69.99
2022-11-07T20:44:57.855Z,69.84
2022-11-07T20:47:25.042Z,69.81
2022-11-07T20:49:54.017Z,69.79
2022-11-07T20:52:24.033Z,69.79
2022-11-07T20:54:55.367Z,69.80
2022-11-07T20:57:26.105Z,69.71
2022-11-07T20:59:54.958Z,70.06
2022-11-07T21:02:26.427Z,70.26
2022-11-07T21:05:16.253Z,70.26
2022-11-07T21:07:39.718Z,70.19
2022-11-07T21:10:08.710Z,70.34
2022-11-07T21:12:35.343Z,70.20
2022-11-07T21:15:01.959Z,70.18
2022-11-07T21:17:28.774Z,70.08
2022-11-07T21:20:03.004Z,69.93
2022-11-07T21:22:31.991Z,69.81
2022-11-07T21:25:00.930Z,69.69
2022-11-07T21:27:27.425Z,69.94
2022-11-07T21:29:54.001Z,69.74
2022-11-07T21:32:20.566Z,69.69
2022-11-07T21:34:50.183Z,69.83
2022-11-07T21:37:19.226Z,69.83
2022-11-07T21:39:45.732Z,69.61
2022-11-07T21:42:12.840Z,69.55
2022-11-07T21:44:39.440Z,69.53
2022-11-07T21:47:08.974Z,69.47
2022-11-07T21:49:35.558Z,69.59
2022-11-07T21:52:02.384Z,69.58
2022-11-07T21:54:29.077Z,69.57
2022-11-07T21:56:58.215Z,69.47
2022-11-07T21:59:24.749Z,69.51
2022-11-07T22:01:54.308Z,69.74
2022-11-07T22:04:23.629Z,69.55
2022-11-07T22:06:51.609Z,69.94
2022-11-07T22:09:19.822Z,69.98
2022-11-07T22:11:49.406Z,70.00
2022-11-07T22:14:20.383Z,70.22
2022-11-07T22:16:47.276Z,70.16
2022-11-07T22:19:14.061Z,70.07
2022-11-07T22:21:40.930Z,70.05
2022-11-07T22:24:07.829Z,70.12
2022-11-07T22:26:34.365Z,70.09
2022-11-07T22:29:00.962Z,70.20
2022-11-07T22:31:30.119Z,70.22
2022-11-07T22:34:01.876Z,70.03
2022-11-07T22:36:28.813Z,70.18
2022-11-07T22:39:00.867Z,69.93
2022-11-07T22:41:32.278Z,69.94
2022-11-07T22:43:58.874Z,69.96
2022-11-07T22:46:31.564Z,70.24
2022-11-07T22:49:01.217Z,70.38
2022-11-07T22:51:31.439Z,70.55
2022-11-07T22:54:02.282Z,70.52
2022-11-07T22:56:29.499Z,70.60
2022-11-07T22:58:58.986Z,70.32
2022-11-07T23:01:26.863Z,70.26
2022-11-07T23:03:53.816Z,70.33
2022-11-07T23:06:20.642Z,70.13
2022-11-07T23:08:47.702Z,70.06
2022-11-07T23:14:06.576Z,70.08
2022-11-07T23:16:36.495Z,69.98
2022-11-07T23:19:03.956Z,70.32
2022-11-07T23:21:33.039Z,70.02
2022-11-07T23:23:59.982Z,70.28
2022-11-07T23:26:35.669Z,70.17
2022-11-07T23:29:10.879Z,70.16
2022-11-07T23:31:41.773Z,70.28
2022-11-07T23:34:10.861Z,70.24
2022-11-07T23:36:37.608Z,69.89
2022-11-07T23:39:05.101Z,69.94
2022-11-07T23:41:34.055Z,69.91
2022-11-07T23:44:02.989Z,70.05
2022-11-07T23:46:52.753Z,69.88
2022-11-07T23:49:40.160Z,70.10
2022-11-07T23:52:06.756Z,70.36
2022-11-07T23:54:51.960Z,70.51
2022-11-07T23:57:20.687Z,70.71
